createdAt,value
2022-11-05T06:13:53.541Z,100.00
2022-11-05T06:17:03.494Z,100.00
2022-11-05T06:20:14.165Z,100.00
2022-11-05T06:23:24.071Z,100.00
2022-11-05T06:26:33.964Z,100.00
2022-11-05T06:29:45.170Z,100.00
2022-11-05T06:32:55.084Z,100.00
2022-11-05T06:36:06.730Z,100.00
2022-11-05T06:39:16.615Z,100.00
2022-11-05T06:42:26.848Z,100.00
2022-11-05T06:45:38.239Z,100.00
2022-11-05T06:48:48.536Z,100.00
2022-11-05T06:51:59.275Z,100.00
2022-11-05T06:55:09.843Z,100.00
2022-11-05T06:58:19.810Z,100.00
2022-11-05T07:01:31.109Z,100.00
2022-11-05T07:04:41.128Z,100.00
2022-11-05T07:07:51.119Z,100.00
2022-11-05T07:11:01.135Z,100.00
2022-11-05T07:14:11.013Z,100.00
2022-11-05T07:17:23.150Z,100.00
2022-11-05T07:20:34.528Z,100.00
2022-11-05T07:23:44.580Z,100.00
2022-11-05T07:26:54.478Z,100.00
2022-11-05T07:30:04.714Z,100.00
2022-11-05T07:33:15.954Z,100.00
2022-11-05T07:36:25.953Z,100.00
2022-11-05T07:39:35.857Z,100.00
2022-11-05T07:42:46.729Z,100.00
2022-11-05T07:45:56.649Z,100.00
2022-11-05T07:49:07.906Z,100.00
2022-11-05T07:52:17.858Z,100.00
2022-11-05T07:55:27.795Z,100.00
2022-11-05T07:58:38.283Z,100.00
2022-11-05T08:01:48.354Z,100.00
2022-11-05T08:04:59.739Z,100.00
2022-11-05T08:08:11.713Z,100.00
2022-11-05T08:11:21.615Z,100.00
2022-11-05T08:14:31.503Z,100.00
2022-11-05T08:17:41.840Z,100.00
2022-11-05T08:20:53.065Z,100.00
2022-11-05T08:24:02.993Z,100.00
2022-11-05T08:27:12.950Z,100.00
2022-11-05T08:30:23.107Z,100.00
2022-11-05T08:51:44.713Z,90.46
2022-11-05T08:54:54.693Z,86.86
2022-11-05T08:58:06.107Z,86.43
2022-11-05T09:01:16.253Z,84.41
2022-11-05T09:04:26.193Z,83.25
2022-11-05T09:07:37.422Z,83.21
2022-11-05T09:10:49.783Z,84.08
2022-11-05T09:13:59.753Z,84.20
2022-11-05T09:17:16.886Z,80.39
2022-11-05T09:20:27.094Z,80.11
2022-11-05T09:23:38.348Z,79.39
2022-11-05T09:26:48.354Z,77.42
2022-11-05T09:29:58.277Z,78.97
2022-11-05T09:33:08.372Z,78.19
2022-11-05T09:36:18.374Z,79.00
2022-11-05T09:39:29.739Z,76.76
2022-11-05T09:42:46.169Z,76.13
2022-11-05T09:45:59.859Z,78.22
2022-11-05T09:49:21.751Z,79.07
2022-11-05T09:52:34.253Z,78.32
2022-11-05T09:55:49.266Z,76.51
2022-11-05T09:59:03.080Z,72.80
2022-11-05T10:02:21.692Z,71.39
2022-11-05T10:05:35.131Z,74.45
2022-11-05T10:08:47.838Z,72.50
2022-11-05T10:12:06.441Z,72.65
2022-11-05T10:15:20.585Z,71.28
2022-11-05T10:18:34.521Z,72.79
2022-11-05T10:22:05.455Z,69.77
2022-11-05T10:25:19.361Z,72.55
2022-11-05T10:28:33.749Z,69.87
2022-11-05T10:31:44.516Z,71.08
2022-11-05T10:34:58.313Z,69.99
2022-11-05T10:38:14.232Z,70.81
2022-11-05T10:41:38.392Z,70.30
2022-11-05T10:44:57.991Z,71.88
2022-11-05T10:48:28.031Z,71.40
2022-11-05T10:51:38.299Z,70.75
2022-11-05T10:54:49.826Z,69.67
2022-11-05T10:58:10.513Z,70.81
2022-11-05T11:01:23.923Z,69.44
2022-11-05T11:04:37.909Z,71.17
2022-11-05T11:07:55.224Z,73.35
2022-11-05T11:11:09.099Z,75.46
2022-11-05T11:14:22.420Z,76.28
2022-11-05T11:17:33.859Z,73.67
2022-11-05T11:20:46.601Z,72.98
2022-11-05T11:23:57.756Z,69.33
2022-11-05T11:27:14.149Z,70.82
2022-11-05T11:30:27.494Z,69.89
2022-11-05T11:33:40.732Z,70.67
2022-11-05T11:36:55.042Z,69.57
2022-11-05T11:40:14.619Z,67.93
2022-11-05T11:43:29.045Z,67.98
2022-11-05T11:46:39.220Z,69.34
2022-11-05T11:49:52.419Z,69.69
2022-11-05T11:53:18.388Z,69.28
2022-11-05T11:56:29.157Z,68.75
2022-11-05T12:00:07.373Z,69.96
2022-11-05T12:03:24.556Z,70.32
2022-11-05T12:06:42.160Z,70.45
2022-11-05T12:10:04.358Z,71.37
2022-11-05T12:13:40.795Z,71.12
2022-11-05T12:17:01.766Z,71.64
2022-11-05T12:20:25.400Z,71.73
2022-11-05T12:23:58.382Z,73.77
2022-11-05T12:27:21.605Z,74.04
2022-11-05T12:30:43.570Z,76.13
2022-11-05T12:34:04.209Z,77.56
2022-11-05T12:37:23.069Z,76.93
2022-11-05T12:40:47.924Z,78.05
2022-11-05T12:44:14.303Z,82.94
2022-11-05T12:47:37.897Z,85.70
2022-11-05T12:50:53.644Z,88.88
2022-11-05T12:54:15.921Z,89.53
2022-11-05T12:57:31.617Z,92.89
2022-11-05T13:00:45.281Z,92.57
2022-11-05T13:03:58.709Z,92.36
2022-11-05T13:07:12.936Z,93.20
2022-11-05T13:10:29.193Z,92.14
2022-11-05T13:13:47.581Z,93.46
2022-11-05T13:17:01.877Z,92.60
2022-11-05T13:20:17.709Z,88.86
2022-11-05T13:23:33.595Z,88.92
2022-11-05T13:26:50.903Z,90.38
2022-11-05T13:30:05.252Z,91.28
2022-11-05T13:33:20.586Z,89.99
2022-11-05T13:36:47.377Z,89.39
2022-11-05T13:40:00.922Z,88.46
2022-11-05T13:43:24.192Z,89.12
2022-11-05T13:46:51.945Z,89.32
2022-11-05T13:50:24.252Z,87.59
2022-11-05T13:53:49.592Z,89.67
2022-11-05T13:57:12.267Z,88.63
2022-11-05T14:00:24.401Z,87.96
2022-11-05T14:03:36.299Z,88.54
2022-11-05T14:06:46.405Z,86.57
2022-11-05T14:09:58.233Z,87.10
2022-11-05T14:13:21.680Z,88.33
2022-11-05T14:16:49.132Z,89.54
2022-11-05T14:20:25.572Z,88.92
2022-11-05T14:23:41.000Z,90.44
2022-11-05T14:27:20.608Z,90.36
2022-11-05T14:30:41.985Z,89.80
2022-11-05T14:34:01.173Z,88.93
2022-11-05T14:37:23.513Z,90.12
2022-11-05T14:40:37.819Z,90.64
2022-11-05T14:43:52.899Z,90.63
2022-11-05T14:47:05.785Z,91.20
2022-11-05T14:50:22.376Z,92.44
2022-11-05T14:53:37.056Z,92.60
2022-11-05T14:56:54.963Z,90.90
2022-11-05T15:00:07.807Z,91.53
2022-11-05T15:03:31.825Z,91.61
2022-11-05T15:07:13.216Z,92.25
2022-11-05T15:10:31.515Z,92.64
2022-11-05T15:13:49.690Z,92.08
2022-11-05T15:17:05.233Z,93.28
2022-11-05T15:20:18.399Z,91.81
2022-11-05T15:23:40.599Z,92.58
2022-11-05T15:26:59.561Z,92.54
2022-11-05T15:30:16.594Z,93.07
2022-11-05T15:33:27.061Z,93.94
2022-11-05T15:36:37.050Z,92.71
2022-11-05T15:39:48.380Z,92.99
2022-11-05T15:43:16.402Z,93.38
2022-11-05T15:46:28.196Z,93.71
2022-11-05T15:49:38.251Z,95.06
2022-11-05T15:52:51.085Z,95.58
2022-11-05T15:56:10.841Z,96.41
2022-11-05T15:59:23.929Z,97.93
2022-11-05T16:02:35.770Z,98.13
2022-11-05T16:05:48.331Z,98.32
2022-11-05T16:08:58.346Z,98.81
2022-11-05T16:12:24.158Z,98.03
2022-11-05T16:15:35.489Z,98.16
2022-11-05T16:18:46.551Z,98.62
2022-11-05T16:21:56.520Z,98.98
2022-11-05T16:25:28.846Z,99.51
2022-11-05T16:28:38.894Z,100.00
2022-11-05T16:31:53.726Z,100.00
2022-11-05T16:35:06.704Z,100.00
2022-11-05T16:38:18.052Z,98.73
2022-11-05T16:41:28.513Z,99.03
2022-11-05T16:44:38.469Z,98.83
2022-11-05T16:47:50.296Z,98.72
2022-11-05T16:51:00.297Z,98.51
2022-11-05T16:54:10.467Z,99.50
2022-11-05T16:57:26.619Z,99.86
2022-11-05T17:00:36.551Z,100.00
2022-11-05T17:03:49.306Z,100.00
2022-11-05T17:06:59.192Z,100.00
2022-11-05T17:10:09.332Z,100.00
2022-11-05T17:13:20.390Z,100.00
2022-11-05T17:16:30.403Z,100.00
2022-11-05T17:19:42.562Z,100.00
2022-11-05T17:22:52.616Z,100.00
2022-11-05T17:26:04.766Z,100.00
2022-11-05T17:29:14.873Z,100.00
2022-11-05T17:32:24.972Z,100.00
2022-11-05T17:35:39.082Z,100.00
2022-11-05T17:38:49.076Z,100.00
2022-11-05T17:41:59.026Z,100.00
2022-11-05T17:45:10.831Z,100.00
2022-11-05T17:48:21.919Z,100.00
2022-11-05T17:51:34.647Z,100.00
2022-11-05T17:54:44.635Z,100.00
2022-11-05T17:57:54.694Z,100.00
2022-11-05T18:01:04.772Z,100.00
2022-11-05T18:04:14.857Z,100.00
2022-11-05T18:07:26.075Z,100.00
2022-11-05T18:10:37.968Z,100.00
2022-11-05T18:13:48.091Z,100.00
2022-11-05T18:17:00.296Z,100.00
2022-11-05T18:20:17.397Z,100.00
2022-11-05T18:23:30.210Z,100.00
2022-11-05T18:26:40.306Z,100.00
2022-11-05T18:29:50.358Z,100.00
2022-11-05T18:33:00.505Z,100.00
2022-11-05T18:36:17.316Z,100.00
2022-11-05T18:39:29.711Z,100.00
2022-11-05T18:42:40.285Z,100.00
2022-11-05T18:45:56.801Z,100.00
2022-11-05T18:49:07.081Z,100.00
2022-11-05T18:52:17.231Z,100.00
2022-11-05T18:55:28.585Z,100.00
2022-11-05T18:58:38.747Z,100.00
2022-11-05T19:01:49.860Z,100.00
2022-11-05T19:05:27.351Z,100.00
2022-11-05T19:08:32.052Z,100.00
2022-11-05T19:11:43.278Z,100.00
2022-11-05T19:14:56.701Z,100.00
2022-11-05T19:18:09.711Z,100.00
2022-11-05T19:21:21.775Z,100.00
2022-11-05T19:24:31.803Z,100.00
2022-11-05T19:27:43.788Z,100.00
2022-11-05T19:30:53.781Z,100.00
2022-11-05T19:34:05.519Z,100.00
2022-11-05T19:37:15.717Z,100.00
2022-11-05T19:40:25.756Z,100.00
2022-11-05T19:43:38.310Z,100.00
2022-11-05T19:46:48.218Z,100.00
2022-11-05T19:49:58.167Z,100.00
2022-11-05T19:53:08.445Z,100.00
2022-11-05T19:56:22.241Z,100.00
2022-11-05T19:59:33.716Z,100.00
2022-11-05T20:02:46.415Z,100.00
2022-11-05T20:05:56.719Z,100.00
2022-11-05T20:09:24.265Z,100.00
2022-11-05T20:12:34.490Z,100.00
2022-11-05T20:15:46.666Z,100.00
2022-11-05T20:18:57.926Z,100.00
2022-11-05T20:22:07.825Z,100.00
2022-11-05T20:25:18.043Z,100.00
2022-11-05T20:28:28.440Z,100.00
2022-11-05T20:31:40.537Z,100.00
2022-11-05T20:34:50.458Z,100.00
2022-11-05T20:38:00.412Z,100.00
2022-11-05T20:41:12.420Z,100.00
2022-11-05T20:44:22.388Z,100.00
2022-11-05T20:47:33.752Z,100.00
2022-11-05T20:50:44.782Z,100.00
2022-11-05T20:53:56.568Z,100.00
2022-11-05T20:57:06.629Z,100.00
2022-11-05T21:00:17.664Z,100.00
2022-11-05T21:03:29.115Z,100.00
2022-11-05T21:06:39.191Z,100.00
2022-11-05T21:09:49.092Z,100.00
2022-11-05T21:12:59.143Z,100.00
2022-11-05T21:16:15.393Z,100.00
2022-11-05T21:19:29.515Z,100.00
2022-11-05T21:22:43.029Z,100.00
2022-11-05T21:25:52.977Z,100.00
2022-11-05T21:29:03.117Z,100.00
2022-11-05T21:32:13.086Z,100.00
2022-11-05T21:35:24.627Z,100.00
2022-11-05T21:38:34.512Z,100.00
2022-11-05T21:41:44.615Z,100.00
2022-11-05T21:44:59.215Z,100.00
2022-11-05T21:48:11.265Z,100.00
2022-11-05T21:51:36.709Z,100.00
2022-11-05T21:54:58.371Z,100.00
2022-11-05T21:58:24.530Z,100.00
2022-11-05T22:01:34.788Z,100.00
2022-11-05T22:04:46.832Z,100.00
2022-11-05T22:07:58.094Z,100.00
2022-11-05T22:11:07.995Z,100.00
2022-11-05T22:14:17.973Z,100.00
2022-11-05T22:17:28.018Z,100.00
2022-11-05T22:20:39.774Z,100.00
2022-11-05T22:23:52.240Z,100.00
2022-11-05T22:27:04.436Z,100.00
2022-11-05T22:30:15.622Z,100.00
